createdAt,value
2018-06-27T00:00:00.870Z,97.20
2018-06-27T00:03:04.385Z,97.30
2018-06-27T00:06:07.466Z,97.40
2018-06-27T00:09:10.533Z,97.30
2018-06-27T00:12:13.590Z,97.30
2018-06-27T00:15:16.669Z,97.20
2018-06-27T00:18:19.760Z,97.40
2018-06-27T00:21:22.843Z,97.40
2018-06-27T00:27:28.778Z,97.80
2018-06-27T00:30:31.845Z,97.80
2018-06-27T00:33:34.901Z,97.70
2018-06-27T00:39:40.823Z,97.90
2018-06-27T00:42:43.898Z,97.90
2018-06-27T00:45:46.964Z,97.90
2018-06-27T00:48:50.021Z,98.00
2018-06-27T00:51:53.077Z,98.00
2018-06-27T00:54:56.133Z,98.10
2018-06-27T01:01:02.973Z,98.20
2018-06-27T01:04:06.290Z,98.20
2018-06-27T01:07:09.353Z,98.30
2018-06-27T01:10:12.441Z,98.20
2018-06-27T01:13:15.516Z,98.30
2018-06-27T01:16:18.613Z,98.30
2018-06-27T01:19:21.685Z,98.10
2018-06-27T01:25:27.617Z,98.10
2018-06-27T01:28:30.686Z,98.30
2018-06-27T01:31:33.770Z,98.30
2018-06-27T01:34:36.839Z,98.50
2018-06-27T01:40:42.781Z,98.70
2018-06-27T01:43:45.878Z,98.80
2018-06-27T01:46:48.981Z,98.90
2018-06-27T01:49:52.049Z,99.00
2018-06-27T01:52:55.154Z,98.90
2018-06-27T01:55:58.263Z,98.90
2018-06-27T02:02:04.216Z,98.80
2018-06-27T02:05:07.293Z,98.70
2018-06-27T02:08:10.398Z,98.80
2018-06-27T02:11:13.480Z,98.80
2018-06-27T02:14:16.573Z,98.70
2018-06-27T02:17:19.681Z,98.70
2018-06-27T02:20:22.771Z,98.60
2018-06-27T02:23:25.865Z,98.60
2018-06-27T02:26:28.945Z,98.60
2018-06-27T02:29:32.057Z,98.60
2018-06-27T02:32:35.137Z,98.70
2018-06-27T02:35:38.221Z,98.70
2018-06-27T02:38:41.273Z,98.60
2018-06-27T02:41:44.360Z,98.60
2018-06-27T02:44:47.432Z,98.60
2018-06-27T02:53:56.232Z,98.50
2018-06-27T02:56:59.314Z,98.40
2018-06-27T03:00:02.374Z,98.40
2018-06-27T03:06:08.365Z,98.30
2018-06-27T03:09:11.923Z,98.30
2018-06-27T03:12:14.998Z,98.40
2018-06-27T03:15:18.081Z,98.50
2018-06-27T03:18:21.161Z,98.40
2018-06-27T03:21:24.985Z,98.50
2018-06-27T03:24:28.061Z,98.60
2018-06-27T03:27:31.161Z,98.60
2018-06-27T03:30:35.349Z,98.70
2018-06-27T03:33:38.499Z,98.60
2018-06-27T03:36:41.545Z,98.60
2018-06-27T03:39:44.643Z,98.50
2018-06-27T03:42:47.726Z,98.50
2018-06-27T03:45:50.817Z,98.40
2018-06-27T03:48:53.942Z,98.40
2018-06-27T03:51:57.105Z,98.40
2018-06-27T03:55:00.213Z,98.40
2018-06-27T03:58:03.318Z,98.30
2018-06-27T04:01:07.853Z,98.20
2018-06-27T04:04:10.937Z,98.10
2018-06-27T04:07:14.004Z,97.80
2018-06-27T04:10:17.098Z,97.70
2018-06-27T04:13:20.926Z,97.80
2018-06-27T04:16:23.906Z,97.60
2018-06-27T04:19:27.125Z,97.60
2018-06-27T04:22:32.773Z,97.40
2018-06-27T04:25:35.821Z,97.40
2018-06-27T04:28:38.898Z,97.20
2018-06-27T04:31:41.991Z,97.10
2018-06-27T04:34:45.185Z,96.80
2018-06-27T04:37:48.270Z,96.80
2018-06-27T04:40:51.342Z,97.00
2018-06-27T04:43:54.434Z,96.90
2018-06-27T04:46:57.501Z,97.20
2018-06-27T04:50:00.602Z,97.10
2018-06-27T04:53:03.700Z,97.00
2018-06-27T04:56:06.785Z,97.10
2018-06-27T04:59:09.916Z,96.90
2018-06-27T05:02:12.969Z,96.50
2018-06-27T05:05:16.068Z,96.50
2018-06-27T05:08:19.158Z,96.80
2018-06-27T05:11:22.253Z,97.20
2018-06-27T05:14:25.297Z,96.70
2018-06-27T05:17:28.369Z,95.30
2018-06-27T05:20:31.454Z,93.90
2018-06-27T05:23:34.549Z,92.70
2018-06-27T05:26:37.615Z,91.20
2018-06-27T05:32:43.545Z,82.70
2018-06-27T05:35:46.630Z,83.20
2018-06-27T05:38:49.831Z,86.10
2018-06-27T05:41:52.895Z,90.20
2018-06-27T05:44:55.968Z,91.30
2018-06-27T05:51:01.881Z,86.10
2018-06-27T05:54:04.974Z,83.10
2018-06-27T05:57:08.065Z,77.40
2018-06-27T06:00:12.419Z,74.60
2018-06-27T06:03:15.469Z,70.10
2018-06-27T06:06:18.567Z,65.90
2018-06-27T06:09:21.646Z,62.60
2018-06-27T06:12:24.794Z,58.40
2018-06-27T06:15:28.038Z,56.80
2018-06-27T06:18:31.389Z,55.20
2018-06-27T06:24:41.073Z,52.90
2018-06-27T06:27:44.243Z,49.10
2018-06-27T06:30:47.414Z,46.90
2018-06-27T06:33:51.379Z,44.60
2018-06-27T06:36:54.586Z,44.10
2018-06-27T06:39:57.758Z,42.70
2018-06-27T06:43:00.938Z,44.10
2018-06-27T06:49:07.087Z,43.80
2018-06-27T06:52:10.269Z,43.70
2018-06-27T06:55:13.433Z,43.90
2018-06-27T06:58:16.558Z,47.70
2018-06-27T07:01:19.769Z,51.50
2018-06-27T07:07:57.550Z,59.30
2018-06-27T07:11:01.252Z,62.90
2018-06-27T07:14:04.725Z,62.60
2018-06-27T07:17:08.453Z,62.10
2018-06-27T07:20:12.206Z,61.30
2018-06-27T07:23:16.178Z,61.90
2018-06-27T07:26:20.201Z,58.90
2018-06-27T07:29:24.508Z,55.40
2018-06-27T07:32:28.650Z,50.00
2018-06-27T07:35:32.791Z,47.40
2018-06-27T07:41:50.726Z,45.00
2018-06-27T07:44:53.903Z,44.20
2018-06-27T07:47:57.439Z,42.30
2018-06-27T07:51:01.366Z,43.80
2018-06-27T07:54:04.631Z,41.90
2018-06-27T07:57:09.090Z,42.10
2018-06-27T08:00:12.267Z,40.70
2018-06-27T08:03:15.480Z,38.10
2018-06-27T08:06:18.753Z,37.20
2018-06-27T08:09:21.959Z,35.40
2018-06-27T08:15:28.138Z,38.60
2018-06-27T08:18:40.704Z,40.10
2018-06-27T08:21:43.927Z,37.60
2018-06-27T08:24:47.147Z,36.60
2018-06-27T08:27:50.354Z,35.90
2018-06-27T08:33:56.437Z,39.80
2018-06-27T08:43:05.591Z,41.50
2018-06-27T08:46:08.799Z,38.60
2018-06-27T08:49:12.007Z,39.70
2018-06-27T08:52:15.227Z,42.80
2018-06-27T08:55:18.366Z,46.70
2018-06-27T08:58:21.591Z,48.90
2018-06-27T09:01:24.754Z,52.20
2018-06-27T09:04:27.902Z,54.60
2018-06-27T09:07:31.095Z,55.50
2018-06-27T09:10:34.395Z,52.80
2018-06-27T09:13:37.627Z,53.90
2018-06-27T09:16:40.814Z,54.30
2018-06-27T09:19:44.068Z,56.20
2018-06-27T09:22:47.899Z,51.40
2018-06-27T09:25:51.162Z,50.20
2018-06-27T09:28:54.424Z,48.30
2018-06-27T09:31:57.663Z,48.20
2018-06-27T09:35:00.863Z,44.80
2018-06-27T09:38:04.086Z,45.40
2018-06-27T09:41:07.292Z,45.60
2018-06-27T09:44:10.553Z,47.90
2018-06-27T09:47:13.754Z,46.20
2018-06-27T09:50:16.954Z,48.70
2018-06-27T09:53:20.146Z,47.90
2018-06-27T09:56:23.986Z,49.90
2018-06-27T09:59:27.196Z,50.70
2018-06-27T10:05:33.594Z,50.40
2018-06-27T10:11:39.999Z,50.80
2018-06-27T10:14:43.161Z,51.70
2018-06-27T10:20:49.366Z,52.90
2018-06-27T10:23:52.681Z,51.40
2018-06-27T10:26:55.939Z,52.30
2018-06-27T10:29:59.215Z,49.80
2018-06-27T10:33:02.524Z,51.10
2018-06-27T10:36:05.807Z,51.90
2018-06-27T10:39:10.307Z,49.80
2018-06-27T10:42:13.480Z,49.30
2018-06-27T10:45:16.675Z,50.60
2018-06-27T10:48:19.834Z,51.70
2018-06-27T10:51:23.102Z,52.70
2018-06-27T10:54:26.279Z,53.90
2018-06-27T10:57:29.410Z,54.10
2018-06-27T11:00:32.590Z,52.00
2018-06-27T11:03:42.307Z,53.10
2018-06-27T11:06:45.498Z,53.50
2018-06-27T11:09:48.693Z,54.70
2018-06-27T11:12:51.942Z,54.10
2018-06-27T11:15:55.190Z,51.00
2018-06-27T11:18:58.361Z,51.40
2018-06-27T11:22:01.540Z,53.40
2018-06-27T11:25:04.956Z,52.80
2018-06-27T11:31:11.222Z,54.20
2018-06-27T11:34:14.475Z,54.10
2018-06-27T11:37:17.686Z,55.50
2018-06-27T11:40:20.835Z,53.80
2018-06-27T11:43:24.089Z,51.60
2018-06-27T11:49:30.180Z,50.70
2018-06-27T11:52:33.318Z,50.40
2018-06-27T11:55:36.590Z,49.60
2018-06-27T11:58:39.782Z,51.00
2018-06-27T12:01:42.947Z,51.40
2018-06-27T12:07:49.063Z,50.40
2018-06-27T12:10:52.274Z,50.60
2018-06-27T12:13:55.461Z,49.20
2018-06-27T12:16:58.728Z,48.60
2018-06-27T12:20:01.978Z,49.70
2018-06-27T12:23:05.248Z,49.70
2018-06-27T12:26:08.495Z,49.20
2018-06-27T12:29:11.658Z,51.50
2018-06-27T12:32:14.845Z,51.10
2018-06-27T12:35:18.678Z,50.50
2018-06-27T12:38:21.843Z,51.60
2018-06-27T12:41:24.946Z,52.00
2018-06-27T12:44:28.195Z,51.30
2018-06-27T12:50:34.396Z,51.70
2018-06-27T12:53:37.538Z,51.00
2018-06-27T12:59:43.720Z,51.40
2018-06-27T13:02:46.906Z,50.70
2018-06-27T13:05:50.206Z,49.50
2018-06-27T13:11:56.336Z,51.20
2018-06-27T13:14:59.546Z,51.00
2018-06-27T13:18:02.886Z,51.00
2018-06-27T13:24:09.018Z,48.90
2018-06-27T13:27:12.247Z,47.90
2018-06-27T13:30:15.438Z,49.40
2018-06-27T13:33:18.655Z,47.70
2018-06-27T13:39:24.818Z,48.80
2018-06-27T13:42:27.994Z,47.70
2018-06-27T13:45:31.175Z,47.00
2018-06-27T13:48:34.355Z,50.10
2018-06-27T13:51:37.500Z,49.50
2018-06-27T13:57:46.242Z,50.10
2018-06-27T14:00:49.419Z,47.40
2018-06-27T14:03:52.574Z,47.30
2018-06-27T14:06:55.781Z,47.10
2018-06-27T14:09:58.930Z,47.50
2018-06-27T14:13:02.098Z,47.80
2018-06-27T14:16:05.643Z,48.10
2018-06-27T14:19:08.783Z,47.00
2018-06-27T14:22:11.950Z,46.80
2018-06-27T14:25:15.080Z,47.20
2018-06-27T14:28:18.194Z,47.10
2018-06-27T14:31:21.363Z,46.60
2018-06-27T14:34:24.520Z,46.80
2018-06-27T14:37:27.734Z,45.80
2018-06-27T14:40:30.922Z,46.60
2018-06-27T14:43:34.170Z,46.10
2018-06-27T14:46:37.519Z,46.20
2018-06-27T14:49:40.715Z,47.20
2018-06-27T14:52:44.003Z,47.90
2018-06-27T14:55:47.182Z,48.10
2018-06-27T14:58:50.431Z,48.50
2018-06-27T15:04:56.702Z,48.70
2018-06-27T15:07:59.997Z,49.10
2018-06-27T15:11:03.211Z,48.70
2018-06-27T15:20:12.278Z,46.90
2018-06-27T15:26:18.475Z,47.50
2018-06-27T15:29:21.705Z,47.20
2018-06-27T15:32:24.926Z,47.00
2018-06-27T15:35:28.322Z,47.70
2018-06-27T15:38:31.402Z,48.10
2018-06-27T15:41:34.698Z,47.10
2018-06-27T15:44:37.863Z,47.50
2018-06-27T15:47:41.049Z,46.10
2018-06-27T15:50:44.322Z,47.60
2018-06-27T15:53:47.679Z,47.40
2018-06-27T15:56:50.943Z,46.50
2018-06-27T15:59:55.450Z,47.00
2018-06-27T16:06:01.626Z,46.30
2018-06-27T16:09:07.060Z,46.30
2018-06-27T16:12:10.306Z,47.70
2018-06-27T16:15:13.470Z,48.50
2018-06-27T16:18:16.703Z,48.90
2018-06-27T16:21:19.906Z,48.60
2018-06-27T16:24:23.079Z,48.80
2018-06-27T16:27:26.320Z,49.10
2018-06-27T16:30:29.566Z,48.50
2018-06-27T16:33:32.750Z,49.50
2018-06-27T16:36:36.273Z,50.00
2018-06-27T16:39:39.499Z,50.30
2018-06-27T16:42:42.734Z,50.60
2018-06-27T16:45:45.946Z,51.50
2018-06-27T16:48:49.063Z,51.60
2018-06-27T16:51:52.225Z,51.90
2018-06-27T16:54:55.360Z,51.80
2018-06-27T16:57:58.583Z,52.40
2018-06-27T17:04:08.573Z,52.60
2018-06-27T17:07:11.739Z,52.50
2018-06-27T17:10:14.961Z,52.10
2018-06-27T17:13:18.203Z,51.50
2018-06-27T17:16:21.411Z,51.20
2018-06-27T17:22:27.949Z,50.00
2018-06-27T17:25:31.164Z,50.60
2018-06-27T17:28:34.498Z,50.60
2018-06-27T17:38:08.688Z,52.40
2018-06-27T17:41:11.771Z,52.60
2018-06-27T17:44:14.926Z,53.10
2018-06-27T17:47:18.091Z,53.70
2018-06-27T17:50:21.234Z,53.70
2018-06-27T17:53:24.395Z,53.50
2018-06-27T17:56:27.603Z,55.30
2018-06-27T17:59:30.926Z,54.50
2018-06-27T18:08:40.153Z,55.30
2018-06-27T18:11:43.334Z,55.10
2018-06-27T18:14:46.474Z,55.30
2018-06-27T18:17:49.658Z,55.90
2018-06-27T18:21:12.031Z,56.20
2018-06-27T18:24:15.407Z,56.50
2018-06-27T18:27:18.554Z,55.90
2018-06-27T18:30:21.724Z,56.10
2018-06-27T18:33:25.043Z,56.10
2018-06-27T18:36:28.335Z,56.50
2018-06-27T18:39:31.591Z,56.20
2018-06-27T18:45:37.810Z,56.80
2018-06-27T18:48:41.105Z,57.00
2018-06-27T18:51:44.323Z,57.20
2018-06-27T18:54:47.570Z,57.90
2018-06-27T18:57:50.791Z,58.10
2018-06-27T19:00:53.959Z,57.70
2018-06-27T19:07:00.088Z,57.90
2018-06-27T19:10:03.582Z,58.30
2018-06-27T19:13:06.799Z,58.90
2018-06-27T19:16:10.042Z,58.90
2018-06-27T19:19:13.275Z,59.20
2018-06-27T19:22:16.578Z,59.30
2018-06-27T19:25:19.943Z,59.60
2018-06-27T19:28:23.184Z,59.90
2018-06-27T19:31:26.479Z,60.00
2018-06-27T19:37:32.739Z,60.90
2018-06-27T19:40:35.854Z,60.90
2018-06-27T19:43:38.938Z,61.70
2018-06-27T19:46:42.001Z,62.10
2018-06-27T19:49:45.068Z,61.90
2018-06-27T19:52:48.145Z,61.80
2018-06-27T19:58:54.110Z,62.40
2018-06-27T20:05:01.114Z,62.00
2018-06-27T20:08:04.198Z,62.30
2018-06-27T20:14:10.218Z,62.40
2018-06-27T20:17:17.279Z,64.10
2018-06-27T20:23:23.325Z,64.20
2018-06-27T20:26:26.390Z,64.40
2018-06-27T20:29:29.458Z,64.60
2018-06-27T20:32:32.507Z,64.60
2018-06-27T20:35:35.605Z,64.50
2018-06-27T20:38:38.665Z,64.30
2018-06-27T20:41:41.774Z,64.50
2018-06-27T20:44:44.866Z,64.40
2018-06-27T20:47:47.914Z,64.50
2018-06-27T20:50:51.002Z,64.40
2018-06-27T20:53:54.064Z,64.70
2018-06-27T21:00:02.127Z,64.60
2018-06-27T21:03:05.282Z,65.20
2018-06-27T21:06:08.377Z,65.30
2018-06-27T21:12:15.050Z,65.10
2018-06-27T21:15:18.130Z,65.30
2018-06-27T21:18:21.198Z,64.80
2018-06-27T21:21:24.282Z,65.20
2018-06-27T21:24:27.379Z,64.70
2018-06-27T21:27:30.445Z,65.50
2018-06-27T21:30:33.538Z,65.50
2018-06-27T21:33:36.612Z,66.00
2018-06-27T21:36:41.898Z,66.10
2018-06-27T21:39:44.981Z,65.90
2018-06-27T21:42:48.052Z,66.30
2018-06-27T21:45:51.145Z,66.80
2018-06-27T21:48:54.239Z,66.70
2018-06-27T21:51:58.090Z,67.20
2018-06-27T21:55:01.288Z,67.50
2018-06-27T21:58:04.887Z,67.90
2018-06-27T22:01:08.798Z,68.30
2018-06-27T22:04:11.878Z,68.60
2018-06-27T22:07:14.949Z,69.10
2018-06-27T22:10:18.030Z,68.90
2018-06-27T22:13:21.098Z,69.30
2018-06-27T22:16:24.235Z,69.40
2018-06-27T22:19:27.345Z,69.30
2018-06-27T22:22:30.414Z,69.70
2018-06-27T22:25:33.479Z,69.50
2018-06-27T22:28:36.529Z,69.60
2018-06-27T22:35:09.609Z,70.10
2018-06-27T22:38:12.678Z,70.60
2018-06-27T22:41:15.761Z,70.40
2018-06-27T22:44:18.926Z,70.80
2018-06-27T22:47:21.997Z,70.90
2018-06-27T22:50:25.192Z,70.70
2018-06-27T22:53:28.273Z,70.60
2018-06-27T22:56:31.346Z,70.50
2018-06-27T22:59:34.405Z,71.00
2018-06-27T23:02:37.554Z,71.30
2018-06-27T23:05:40.614Z,71.50
2018-06-27T23:08:43.690Z,71.20
2018-06-27T23:11:46.767Z,71.70
2018-06-27T23:14:49.858Z,72.10
2018-06-27T23:20:55.923Z,72.50
2018-06-27T23:23:58.969Z,73.30
2018-06-27T23:27:02.060Z,73.60
2018-06-27T23:30:05.642Z,73.30
2018-06-27T23:33:08.721Z,73.60
2018-06-27T23:36:11.786Z,73.70
2018-06-27T23:39:14.845Z,73.40
2018-06-27T23:42:17.926Z,73.40
2018-06-27T23:45:21.029Z,73.10
2018-06-27T23:48:24.088Z,73.10
2018-06-27T23:51:27.179Z,73.20
2018-06-27T23:54:30.261Z,73.70
2018-06-27T23:57:33.382Z,73.50
